createdAt,value
2023-04-18T00:00:25.301Z,10.55
2023-04-18T00:02:55.088Z,10.53
2023-04-18T00:05:23.118Z,10.48
2023-04-18T00:07:51.468Z,10.41
2023-04-18T00:10:19.330Z,10.37
2023-04-18T00:12:47.329Z,10.37
2023-04-18T00:15:15.001Z,10.36
2023-04-18T00:17:42.702Z,10.30
2023-04-18T00:20:11.303Z,10.31
2023-04-18T00:22:43.881Z,10.29
2023-04-18T00:25:11.708Z,10.28
2023-04-18T00:27:39.632Z,10.22
2023-04-18T00:30:09.022Z,10.24
2023-04-18T00:32:38.945Z,10.15
2023-04-18T00:35:07.273Z,10.16
2023-04-18T00:37:35.099Z,10.16
2023-04-18T00:40:02.576Z,10.17
2023-04-18T00:42:30.029Z,10.16
2023-04-18T00:44:57.636Z,10.11
2023-04-18T00:47:25.819Z,10.06
2023-04-18T00:49:54.441Z,10.09
2023-04-18T00:52:22.082Z,10.09
2023-04-18T00:54:49.957Z,10.11
2023-04-18T00:57:17.839Z,10.07
2023-04-18T00:59:47.286Z,10.04
2023-04-18T01:02:14.823Z,10.09
2023-04-18T01:04:45.533Z,10.06
2023-04-18T01:07:13.142Z,10.08
2023-04-18T01:09:41.165Z,10.08
2023-04-18T01:12:08.682Z,10.02
2023-04-18T01:14:36.270Z,10.05
2023-04-18T01:17:04.091Z,10.01
2023-04-18T01:19:31.783Z,9.99
2023-04-18T01:21:59.713Z,10.00
2023-04-18T01:24:29.806Z,10.02
2023-04-18T01:26:57.573Z,10.07
2023-04-18T01:29:26.116Z,10.05
2023-04-18T01:31:53.827Z,9.99
2023-04-18T01:34:21.312Z,9.99
2023-04-18T01:36:48.880Z,9.97
2023-04-18T01:39:18.346Z,10.00
2023-04-18T01:41:46.340Z,10.02
2023-04-18T01:44:14.147Z,9.98
2023-04-18T01:46:41.950Z,9.97
2023-04-18T01:49:10.603Z,9.96
2023-04-18T01:51:39.016Z,9.91
2023-04-18T01:54:06.642Z,9.86
2023-04-18T01:56:34.253Z,9.90
2023-04-18T01:59:03.088Z,9.85
2023-04-18T02:01:30.590Z,9.81
2023-04-18T02:03:59.723Z,9.86
2023-04-18T02:06:27.297Z,9.83
2023-04-18T02:08:54.847Z,9.79
2023-04-18T02:11:25.565Z,9.77
2023-04-18T02:13:53.039Z,9.71
2023-04-18T02:16:20.706Z,9.70
2023-04-18T02:18:52.462Z,9.75
2023-04-18T02:21:20.014Z,9.70
2023-04-18T02:23:49.698Z,9.76
2023-04-18T02:26:17.212Z,9.72
2023-04-18T02:28:44.715Z,9.79
2023-04-18T02:31:14.890Z,9.74
2023-04-18T02:33:44.540Z,9.70
2023-04-18T02:36:15.252Z,9.64
2023-04-18T02:38:43.393Z,9.65
2023-04-18T02:41:15.122Z,9.67
2023-04-18T02:43:42.849Z,9.61
2023-04-18T02:46:10.797Z,9.63
2023-04-18T02:48:38.537Z,9.70
2023-04-18T02:51:08.913Z,9.61
2023-04-18T02:53:38.589Z,9.62
2023-04-18T02:56:07.109Z,9.63
2023-04-18T02:58:54.382Z,9.65
2023-04-18T03:01:47.699Z,9.64
2023-04-18T03:04:18.585Z,9.59
2023-04-18T03:07:04.288Z,9.62
2023-04-18T03:09:35.954Z,9.57
2023-04-18T03:12:08.856Z,9.60
2023-04-18T03:14:38.060Z,9.62
2023-04-18T03:17:06.287Z,9.67
2023-04-18T03:19:39.872Z,9.67
2023-04-18T03:22:10.668Z,9.67
2023-04-18T03:24:45.405Z,9.67
2023-04-18T03:27:13.690Z,9.74
2023-04-18T03:29:43.132Z,9.75
2023-04-18T03:32:11.549Z,9.71
2023-04-18T03:34:39.603Z,9.67
2023-04-18T03:37:08.721Z,9.78
2023-04-18T03:39:41.965Z,9.75
2023-04-18T03:42:10.176Z,9.69
2023-04-18T03:44:37.789Z,9.69
2023-04-18T03:47:06.004Z,9.77
2023-04-18T03:49:36.395Z,9.72
2023-04-18T03:52:04.739Z,9.78
2023-04-18T03:54:32.257Z,9.71
2023-04-18T03:56:59.846Z,9.69
2023-04-18T03:59:30.290Z,9.67
2023-04-18T04:01:57.845Z,9.64
2023-04-18T04:04:26.201Z,9.61
2023-04-18T04:06:54.086Z,9.64
2023-04-18T04:09:21.510Z,9.70
2023-04-18T04:11:50.970Z,9.71
2023-04-18T04:14:18.536Z,9.75
2023-04-18T04:16:47.067Z,9.84
2023-04-18T04:19:17.160Z,9.84
2023-04-18T04:22:07.807Z,9.84
2023-04-18T04:24:38.555Z,9.86
2023-04-18T04:27:08.092Z,9.88
2023-04-18T04:29:39.216Z,9.95
2023-04-18T04:32:08.176Z,9.90
2023-04-18T04:34:41.419Z,10.06
2023-04-18T04:37:14.021Z,10.03
2023-04-18T04:39:52.889Z,10.07
2023-04-18T04:42:41.140Z,10.10
2023-04-18T04:45:15.365Z,10.11
2023-04-18T04:47:42.932Z,10.10
2023-04-18T04:50:14.819Z,10.20
2023-04-18T04:52:42.767Z,10.25
2023-04-18T04:55:11.059Z,10.36
2023-04-18T04:57:38.599Z,10.31
2023-04-18T05:00:20.998Z,10.36
2023-04-18T05:02:50.142Z,10.26
2023-04-18T05:05:17.955Z,10.41
2023-04-18T05:07:45.644Z,10.46
2023-04-18T05:10:13.227Z,10.64
2023-04-18T05:12:40.682Z,10.58
2023-04-18T05:15:08.794Z,10.70
2023-04-18T05:17:36.457Z,10.92
2023-04-18T05:20:05.416Z,10.88
2023-04-18T05:22:33.080Z,10.70
2023-04-18T05:25:00.982Z,10.96
2023-04-18T05:27:28.678Z,10.85
2023-04-18T05:29:56.307Z,10.86
2023-04-18T05:32:23.844Z,10.98
2023-04-18T05:34:51.857Z,10.93
2023-04-18T05:37:19.310Z,10.96
2023-04-18T05:39:46.841Z,10.95
2023-04-18T05:42:14.454Z,10.73
2023-04-18T05:44:41.865Z,10.62
2023-04-18T05:47:09.372Z,10.75
2023-04-18T05:49:37.080Z,10.98
2023-04-18T05:52:04.848Z,11.29
2023-04-18T05:54:32.386Z,11.41
2023-04-18T05:57:01.311Z,11.43
2023-04-18T05:59:30.008Z,11.54
2023-04-18T06:01:57.541Z,11.67
2023-04-18T06:04:25.180Z,11.68
2023-04-18T06:06:52.917Z,11.83
2023-04-18T06:09:20.375Z,11.40
2023-04-18T06:11:47.968Z,11.58
2023-04-18T06:14:16.011Z,11.88
2023-04-18T06:16:43.761Z,11.90
2023-04-18T06:19:11.284Z,12.16
2023-04-18T06:21:39.585Z,11.97
2023-04-18T06:24:07.382Z,11.77
2023-04-18T06:26:35.446Z,11.96
2023-04-18T06:29:03.018Z,12.12
2023-04-18T06:31:30.668Z,12.00
2023-04-18T06:33:58.131Z,12.51
2023-04-18T06:36:27.548Z,12.51
2023-04-18T06:38:55.201Z,12.85
2023-04-18T06:41:22.848Z,12.83
2023-04-18T06:44:02.744Z,12.87
2023-04-18T06:46:33.128Z,12.97
2023-04-18T06:49:00.826Z,12.81
2023-04-18T06:51:29.045Z,12.54
2023-04-18T06:53:56.517Z,12.62
2023-04-18T06:56:23.984Z,12.69
2023-04-18T06:58:52.952Z,12.93
2023-04-18T07:01:20.896Z,13.19
2023-04-18T07:03:48.632Z,13.02
2023-04-18T07:06:16.332Z,12.74
2023-04-18T07:08:43.798Z,12.39
2023-04-18T07:11:13.322Z,12.52
2023-04-18T07:13:40.736Z,13.20
2023-04-18T07:16:09.805Z,13.74
2023-04-18T07:18:38.569Z,13.27
2023-04-18T07:21:09.142Z,14.01
2023-04-18T07:23:38.148Z,13.42
2023-04-18T07:26:06.019Z,14.12
2023-04-18T07:28:33.680Z,14.56
2023-04-18T07:31:03.144Z,14.78
2023-04-18T07:33:35.087Z,15.37
2023-04-18T07:36:03.227Z,15.26
2023-04-18T07:38:30.776Z,15.00
2023-04-18T07:41:00.793Z,14.94
2023-04-18T07:43:28.347Z,14.94
2023-04-18T07:45:56.009Z,14.58
2023-04-18T07:48:25.151Z,14.38
2023-04-18T07:50:53.407Z,15.11
2023-04-18T07:53:21.075Z,14.95
2023-04-18T07:55:48.473Z,15.11
2023-04-18T07:58:16.473Z,16.10
2023-04-18T08:00:44.908Z,15.95
2023-04-18T08:03:13.525Z,16.04
2023-04-18T08:05:42.963Z,15.94
2023-04-18T08:08:12.865Z,16.26
2023-04-18T08:10:40.437Z,16.89
2023-04-18T08:13:08.299Z,17.18
2023-04-18T08:15:36.030Z,16.54
2023-04-18T08:18:03.768Z,16.52
2023-04-18T08:20:31.379Z,15.78
2023-04-18T08:23:07.653Z,16.69
2023-04-18T08:25:36.595Z,17.54
2023-04-18T08:28:04.542Z,18.15
2023-04-18T08:30:32.031Z,19.04
2023-04-18T08:33:01.014Z,18.26
2023-04-18T08:35:28.727Z,16.97
2023-04-18T08:37:56.284Z,16.07
2023-04-18T08:40:25.040Z,15.94
2023-04-18T08:42:54.101Z,15.90
2023-04-18T08:45:21.578Z,15.55
2023-04-18T08:47:49.137Z,16.02
2023-04-18T08:50:17.293Z,16.36
2023-04-18T08:52:48.845Z,16.68
2023-04-18T08:55:16.531Z,16.78
2023-04-18T08:57:44.854Z,16.86
2023-04-18T09:00:13.325Z,16.64
2023-04-18T09:02:47.118Z,17.55
2023-04-18T09:05:20.050Z,18.20
2023-04-18T09:07:50.041Z,18.02
2023-04-18T09:10:33.510Z,18.29
2023-04-18T09:13:04.410Z,18.24
2023-04-18T09:15:32.555Z,18.27
2023-04-18T09:18:03.412Z,18.44
2023-04-18T09:20:35.733Z,18.74
2023-04-18T09:23:11.017Z,18.42
2023-04-18T09:25:51.011Z,18.85
2023-04-18T09:28:27.591Z,18.84
2023-04-18T09:31:13.452Z,18.75
2023-04-18T09:33:54.536Z,18.25
2023-04-18T09:36:29.258Z,18.79
2023-04-18T09:38:57.347Z,18.29
2023-04-18T09:41:24.906Z,18.50
2023-04-18T09:44:15.334Z,18.77
2023-04-18T09:46:47.086Z,18.28
2023-04-18T09:49:16.928Z,17.61
2023-04-18T09:51:46.270Z,18.08
2023-04-18T09:54:17.072Z,18.17
2023-04-18T09:56:46.387Z,19.54
2023-04-18T09:59:21.207Z,20.07
2023-04-18T10:01:50.872Z,20.43
2023-04-18T10:04:19.579Z,19.69
2023-04-18T10:06:47.419Z,19.55
2023-04-18T10:09:16.155Z,19.51
2023-04-18T10:11:44.838Z,18.98
2023-04-18T10:14:16.258Z,18.78
2023-04-18T10:16:49.275Z,18.91
2023-04-18T10:19:27.188Z,18.49
2023-04-18T10:22:00.936Z,18.60
2023-04-18T10:24:48.037Z,18.20
2023-04-18T10:27:17.849Z,18.59
2023-04-18T10:29:54.714Z,18.79
2023-04-18T10:32:23.787Z,18.91
2023-04-18T10:34:54.231Z,19.50
2023-04-18T10:37:21.803Z,19.98
2023-04-18T10:40:06.502Z,20.77
2023-04-18T10:42:52.247Z,20.14
2023-04-18T10:45:24.119Z,19.69
2023-04-18T10:48:32.746Z,20.26
2023-04-18T10:51:15.703Z,20.86
2023-04-18T10:53:56.509Z,20.36
2023-04-18T10:56:26.102Z,18.14
2023-04-18T10:58:54.273Z,17.36
2023-04-18T11:01:32.715Z,16.91
2023-04-18T11:04:01.613Z,16.41
2023-04-18T11:06:30.404Z,15.95
2023-04-18T11:09:13.554Z,15.57
2023-04-18T11:11:42.634Z,15.17
2023-04-18T11:14:10.622Z,14.88
2023-04-18T11:16:38.899Z,14.77
2023-04-18T11:19:27.324Z,14.63
2023-04-18T11:22:01.896Z,14.84
2023-04-18T11:24:29.576Z,14.83
2023-04-18T11:26:57.098Z,14.84
2023-04-18T11:29:24.619Z,14.70
2023-04-18T11:31:56.612Z,14.28
2023-04-18T11:34:31.099Z,13.96
2023-04-18T11:36:59.213Z,13.47
2023-04-18T11:39:26.747Z,13.29
2023-04-18T11:41:56.462Z,13.20
2023-04-18T11:44:25.860Z,13.14
2023-04-18T11:46:54.422Z,13.00
2023-04-18T11:49:30.366Z,13.01
2023-04-18T11:51:59.855Z,13.07
2023-04-18T11:54:44.938Z,13.27
2023-04-18T11:57:30.116Z,13.67
2023-04-18T12:00:00.893Z,14.35
2023-04-18T12:02:46.751Z,14.59
2023-04-18T12:05:32.835Z,14.98
2023-04-18T12:08:13.960Z,15.21
2023-04-18T12:10:52.264Z,15.14
2023-04-18T12:13:31.312Z,15.12
2023-04-18T12:16:02.821Z,15.25
2023-04-18T12:18:31.469Z,15.20
2023-04-18T12:21:01.850Z,15.34
2023-04-18T12:23:38.822Z,15.05
2023-04-18T12:26:11.570Z,14.83
2023-04-18T12:28:39.250Z,14.83
2023-04-18T12:31:07.415Z,14.64
2023-04-18T12:33:38.036Z,14.58
2023-04-18T12:36:08.176Z,14.69
2023-04-18T12:38:36.241Z,14.91
2023-04-18T12:41:03.912Z,15.18
2023-04-18T12:43:31.385Z,15.36
2023-04-18T12:45:59.592Z,15.65
2023-04-18T12:48:26.944Z,15.99
2023-04-18T12:50:54.330Z,16.38
2023-04-18T12:53:23.380Z,16.56
2023-04-18T12:55:51.536Z,17.10
2023-04-18T12:58:20.630Z,17.55
2023-04-18T13:00:48.242Z,17.47
2023-04-18T13:03:16.005Z,17.28
2023-04-18T13:05:43.839Z,17.07
2023-04-18T13:08:16.732Z,17.01
2023-04-18T13:10:48.489Z,17.06
2023-04-18T13:13:16.113Z,16.67
2023-04-18T13:15:44.209Z,16.36
2023-04-18T13:18:11.915Z,15.99
2023-04-18T13:20:39.453Z,15.57
2023-04-18T13:23:06.941Z,15.47
2023-04-18T13:25:34.437Z,15.27
2023-04-18T13:28:02.040Z,15.13
2023-04-18T13:30:30.218Z,14.93
2023-04-18T13:32:58.232Z,14.75
2023-04-18T13:35:25.706Z,15.07
2023-04-18T13:37:53.240Z,15.24
2023-04-18T13:40:20.924Z,15.36
2023-04-18T13:42:48.420Z,15.65
2023-04-18T13:45:16.099Z,15.99
2023-04-18T13:47:43.641Z,16.38
2023-04-18T13:50:11.430Z,16.56
2023-04-18T13:52:39.025Z,16.82
2023-04-18T13:55:07.653Z,16.78
2023-04-18T13:57:37.338Z,17.18
2023-04-18T14:00:06.741Z,17.11
2023-04-18T14:02:39.548Z,16.91
2023-04-18T14:05:08.044Z,17.18
2023-04-18T14:07:36.389Z,17.00
2023-04-18T14:10:04.856Z,16.69
2023-04-18T14:12:32.348Z,16.23
2023-04-18T14:14:59.972Z,15.93
2023-04-18T14:17:27.419Z,16.03
2023-04-18T14:19:55.257Z,15.95
2023-04-18T14:22:22.846Z,16.23
2023-04-18T14:24:52.408Z,16.26
2023-04-18T14:27:20.457Z,16.27
2023-04-18T14:29:48.937Z,16.25
2023-04-18T14:32:17.010Z,16.08
2023-04-18T14:34:44.573Z,16.08
2023-04-18T14:37:14.620Z,16.11
2023-04-18T14:39:43.115Z,16.17
2023-04-18T14:42:10.929Z,16.23
2023-04-18T14:44:38.467Z,16.05
2023-04-18T14:47:06.614Z,16.08
2023-04-18T14:49:34.259Z,16.60
2023-04-18T14:52:01.919Z,16.47
2023-04-18T14:54:31.602Z,15.93
2023-04-18T14:57:01.549Z,15.61
2023-04-18T14:59:29.005Z,15.35
2023-04-18T15:01:57.787Z,15.13
2023-04-18T15:04:25.582Z,14.90
2023-04-18T15:06:53.098Z,14.91
2023-04-18T15:09:20.915Z,14.93
2023-04-18T15:11:48.356Z,14.87
2023-04-18T15:14:16.315Z,14.83
2023-04-18T15:16:44.033Z,14.72
2023-04-18T15:19:11.474Z,14.65
2023-04-18T15:21:38.937Z,14.66
2023-04-18T15:24:07.012Z,14.60
2023-04-18T15:26:34.628Z,14.68
2023-04-18T15:29:05.515Z,14.71
2023-04-18T15:31:33.141Z,14.48
2023-04-18T15:34:01.260Z,14.56
2023-04-18T15:36:28.852Z,14.57
2023-04-18T15:38:56.357Z,14.47
2023-04-18T15:41:24.061Z,14.62
2023-04-18T15:43:52.935Z,14.67
2023-04-18T15:46:22.073Z,14.54
2023-04-18T15:48:49.653Z,14.46
2023-04-18T15:51:17.391Z,14.41
2023-04-18T15:53:44.871Z,14.36
2023-04-18T15:56:12.703Z,14.23
2023-04-18T15:58:41.362Z,14.14
2023-04-18T16:01:09.429Z,14.07
2023-04-18T16:03:37.328Z,14.03
2023-04-18T16:06:04.887Z,14.02
2023-04-18T16:08:33.364Z,14.00
2023-04-18T16:11:01.108Z,14.02
2023-04-18T16:13:28.594Z,14.09
2023-04-18T16:15:56.165Z,13.97
2023-04-18T16:18:23.843Z,13.80
2023-04-18T16:20:52.466Z,13.73
2023-04-18T16:23:20.523Z,13.66
2023-04-18T16:25:48.591Z,13.63
2023-04-18T16:28:16.320Z,13.62
2023-04-18T16:30:45.724Z,13.53
2023-04-18T16:33:13.522Z,13.49
2023-04-18T16:35:41.262Z,13.49
2023-04-18T16:38:08.794Z,13.50
2023-04-18T16:40:36.380Z,13.42
2023-04-18T16:43:04.023Z,13.47
2023-04-18T16:45:31.530Z,13.39
2023-04-18T16:47:59.167Z,13.37
2023-04-18T16:50:26.801Z,13.28
2023-04-18T16:52:54.481Z,13.28
2023-04-18T16:55:21.969Z,13.20
2023-04-18T16:57:49.902Z,13.17
2023-04-18T17:00:17.699Z,13.14
2023-04-18T17:02:45.407Z,13.11
2023-04-18T17:05:13.202Z,13.06
2023-04-18T17:07:40.723Z,13.05
2023-04-18T17:10:10.108Z,12.99
2023-04-18T17:12:37.900Z,12.98
2023-04-18T17:15:07.081Z,12.99
2023-04-18T17:17:35.461Z,12.95
2023-04-18T17:20:02.926Z,12.94
2023-04-18T17:22:30.316Z,12.94
2023-04-18T17:24:57.736Z,12.93
2023-04-18T17:27:25.273Z,12.92
2023-04-18T17:29:52.677Z,12.85
2023-04-18T17:32:21.154Z,12.89
2023-04-18T17:34:48.773Z,12.90
2023-04-18T17:37:17.156Z,12.86
2023-04-18T17:39:44.687Z,12.86
2023-04-18T17:42:12.130Z,12.84
2023-04-18T17:44:39.791Z,12.81
2023-04-18T17:47:07.556Z,12.79
2023-04-18T17:49:35.999Z,12.80
2023-04-18T17:52:04.536Z,12.74
2023-04-18T17:54:32.925Z,12.71
2023-04-18T17:57:01.927Z,12.67
2023-04-18T17:59:29.492Z,12.70
2023-04-18T18:01:57.585Z,12.67
2023-04-18T18:04:26.704Z,12.61
2023-04-18T18:06:58.431Z,12.54
2023-04-18T18:09:25.945Z,12.51
2023-04-18T18:11:55.817Z,12.52
2023-04-18T18:14:23.636Z,12.53
2023-04-18T18:16:51.209Z,12.54
2023-04-18T18:19:20.419Z,12.50
2023-04-18T18:21:47.835Z,12.51
2023-04-18T18:24:15.335Z,12.46
2023-04-18T18:26:42.848Z,12.49
2023-04-18T18:29:11.165Z,12.43
2023-04-18T18:31:39.171Z,12.42
2023-04-18T18:34:06.525Z,12.36
2023-04-18T18:36:35.172Z,12.38
2023-04-18T18:39:02.679Z,12.30
2023-04-18T18:41:30.632Z,12.27
2023-04-18T18:43:58.060Z,12.27
2023-04-18T18:46:27.716Z,12.26
2023-04-18T18:48:55.412Z,12.29
2023-04-18T18:51:23.768Z,12.30
2023-04-18T18:53:51.143Z,12.32
2023-04-18T18:56:18.484Z,12.36
2023-04-18T18:58:46.019Z,12.37
2023-04-18T19:01:14.682Z,12.39
2023-04-18T19:03:42.570Z,12.38
2023-04-18T19:06:10.364Z,12.35
2023-04-18T19:08:37.836Z,12.33
2023-04-18T19:11:05.379Z,12.32
2023-04-18T19:13:32.901Z,12.33
2023-04-18T19:16:00.507Z,12.33
2023-04-18T19:18:28.071Z,12.29
2023-04-18T19:20:56.827Z,12.25
2023-04-18T19:23:25.302Z,12.21
2023-04-18T19:25:52.783Z,12.21
2023-04-18T19:28:20.347Z,12.22
2023-04-18T19:30:48.350Z,12.22
2023-04-18T19:33:16.366Z,12.20
2023-04-18T19:35:43.872Z,12.16
2023-04-18T19:38:11.406Z,12.13
2023-04-18T19:40:39.089Z,12.13
2023-04-18T19:43:06.532Z,12.09
2023-04-18T19:45:34.108Z,12.08
2023-04-18T19:48:01.846Z,12.03
2023-04-18T19:50:29.387Z,12.02
2023-04-18T19:52:56.892Z,12.01
2023-04-18T19:55:25.732Z,12.01
2023-04-18T19:57:59.430Z,12.01
2023-04-18T20:00:27.760Z,11.97
2023-04-18T20:02:55.541Z,11.98
2023-04-18T20:05:23.214Z,11.96
2023-04-18T20:07:50.867Z,11.96
2023-04-18T20:10:23.687Z,11.94
2023-04-18T20:12:51.175Z,11.89
2023-04-18T20:15:18.744Z,11.75
2023-04-18T20:17:46.338Z,11.63
2023-04-18T20:20:13.979Z,11.46
2023-04-18T20:22:44.814Z,11.35
2023-04-18T20:25:12.888Z,11.30
2023-04-18T20:27:40.372Z,11.27
2023-04-18T20:30:08.662Z,11.22
2023-04-18T20:32:36.927Z,11.20
2023-04-18T20:35:04.700Z,11.15
2023-04-18T20:37:36.635Z,11.15
2023-04-18T20:40:11.287Z,11.13
2023-04-18T20:42:39.956Z,11.13
2023-04-18T20:45:12.839Z,11.13
2023-04-18T20:47:43.790Z,11.15
2023-04-18T20:50:11.443Z,11.14
2023-04-18T20:52:42.569Z,11.16
2023-04-18T20:55:11.090Z,11.14
2023-04-18T20:57:38.564Z,11.17
2023-04-18T21:00:09.992Z,11.16
2023-04-18T21:02:39.178Z,11.10
2023-04-18T21:05:07.635Z,11.07
2023-04-18T21:07:38.091Z,11.02
2023-04-18T21:10:06.265Z,10.95
2023-04-18T21:12:33.958Z,10.95
2023-04-18T21:15:01.526Z,10.93
2023-04-18T21:17:30.540Z,10.89
2023-04-18T21:19:58.069Z,10.87
2023-04-18T21:22:27.256Z,10.88
2023-04-18T21:24:54.765Z,10.87
2023-04-18T21:27:22.270Z,10.84
2023-04-18T21:29:49.747Z,10.81
2023-04-18T21:32:17.202Z,10.80
2023-04-18T21:34:44.955Z,10.78
2023-04-18T21:37:12.416Z,10.74
2023-04-18T21:39:39.847Z,10.70
2023-04-18T21:42:07.291Z,10.70
2023-04-18T21:44:35.246Z,10.68
2023-04-18T21:47:02.706Z,10.69
2023-04-18T21:49:30.226Z,10.66
2023-04-18T21:51:57.665Z,10.63
2023-04-18T21:54:25.240Z,10.59
2023-04-18T21:56:52.676Z,10.57
2023-04-18T21:59:21.030Z,10.57
2023-04-18T22:01:48.491Z,10.57
2023-04-18T22:04:16.816Z,10.53
2023-04-18T22:06:44.636Z,10.49
2023-04-18T22:09:12.737Z,10.50
2023-04-18T22:11:40.300Z,10.46
2023-04-18T22:14:09.949Z,10.44
2023-04-18T22:16:38.313Z,10.40
2023-04-18T22:19:06.542Z,10.39
2023-04-18T22:21:33.946Z,10.39
2023-04-18T22:24:01.545Z,10.35
2023-04-18T22:26:29.112Z,10.33
2023-04-18T22:28:56.574Z,10.30
2023-04-18T22:31:24.151Z,10.29
2023-04-18T22:33:51.809Z,10.25
2023-04-18T22:36:19.309Z,10.21
2023-04-18T22:38:46.821Z,10.15
2023-04-18T22:41:14.493Z,10.09
2023-04-18T22:43:43.869Z,10.03
2023-04-18T22:46:11.744Z,9.95
2023-04-18T22:48:39.208Z,9.91
2023-04-18T22:51:06.851Z,9.94
2023-04-18T22:53:34.395Z,9.95
2023-04-18T22:56:01.821Z,9.99
2023-04-18T22:58:29.754Z,10.05
2023-04-18T23:00:57.303Z,10.08
2023-04-18T23:03:24.898Z,10.12
2023-04-18T23:05:52.604Z,10.15
2023-04-18T23:08:22.577Z,10.18
2023-04-18T23:10:50.132Z,10.18
2023-04-18T23:13:17.594Z,10.19
2023-04-18T23:15:45.082Z,10.17
2023-04-18T23:18:12.688Z,10.13
2023-04-18T23:20:40.355Z,10.10
2023-04-18T23:23:07.845Z,10.07
2023-04-18T23:25:35.337Z,10.05
2023-04-18T23:28:02.949Z,10.02
